AUA107 LOWW-LOWI
Flight info
| Callsign | AUA107 |
|---|---|
| Flight time | 0h 45m |
| Altitude | 30000 |
| Route | SOVIL DCT SITNI DCT BAGSI DCT NANIT NANIT2A |
| Aircraft | A320/M-SDE3FGHIRWY/LB1 |
Departure
| Time | 2026-05-06 18:09 |
|---|---|
| Airport | Vienna International Airport (LOWW) |
Arrival
| Time | 2026-05-06 18:55 |
|---|---|
| Airport | Innsbruck Airport (LOWI) |
| Time | Latitude | Longitude | Altitude | Speed | Heading |
|---|---|---|---|---|---|
| 2026-05-06 17:38 | 48.11827 | 16.56986 | 609 ft | 0 kts | 206° |
| 2026-05-06 17:58 | 48.11830 | 16.56988 | 608 ft | 1 kts | 206° |
| 2026-05-06 17:58 | 48.11836 | 16.56992 | 622 ft | 1 kts | 206° |
| 2026-05-06 17:59 | 48.11844 | 16.56998 | 625 ft | 1 kts | 206° |
| 2026-05-06 17:59 | 48.11852 | 16.57004 | 622 ft | 1 kts | 206° |
| 2026-05-06 17:59 | 48.11860 | 16.57010 | 619 ft | 1 kts | 206° |
| 2026-05-06 17:59 | 48.11869 | 16.57016 | 624 ft | 1 kts | 175° |
| 2026-05-06 18:00 | 48.11881 | 16.57014 | 619 ft | 2 kts | 162° |
| 2026-05-06 18:00 | 48.11895 | 16.57006 | 620 ft | 2 kts | 146° |
| 2026-05-06 18:00 | 48.11903 | 16.56996 | 621 ft | 0 kts | 123° |
| 2026-05-06 18:01 | 48.11900 | 16.57004 | 620 ft | 2 kts | 123° |
| 2026-05-06 18:01 | 48.11898 | 16.57007 | 608 ft | 0 kts | 123° |
| 2026-05-06 18:02 | 48.11892 | 16.57029 | 591 ft | 8 kts | 114° |
| 2026-05-06 18:03 | 48.11877 | 16.57081 | 610 ft | 3 kts | 114° |
| 2026-05-06 18:03 | 48.11864 | 16.57121 | 613 ft | 6 kts | 114° |
| 2026-05-06 18:03 | 48.11856 | 16.57195 | 610 ft | 9 kts | 97° |
| 2026-05-06 18:03 | 48.11848 | 16.57283 | 610 ft | 9 kts | 59° |
| 2026-05-06 18:04 | 48.11896 | 16.57305 | 610 ft | 7 kts | 351° |
| 2026-05-06 18:04 | 48.11940 | 16.57288 | 618 ft | 6 kts | 351° |
| 2026-05-06 18:04 | 48.11977 | 16.57304 | 622 ft | 5 kts | 40° |
| 2026-05-06 18:04 | 48.11991 | 16.57340 | 617 ft | 3 kts | 69° |
| 2026-05-06 18:05 | 48.11999 | 16.57369 | 612 ft | 4 kts | 70° |
| 2026-05-06 18:05 | 48.12007 | 16.57405 | 618 ft | 5 kts | 71° |
| 2026-05-06 18:05 | 48.12014 | 16.57453 | 610 ft | 5 kts | 86° |
| 2026-05-06 18:05 | 48.12002 | 16.57553 | 619 ft | 12 kts | 104° |
| 2026-05-06 18:06 | 48.11998 | 16.57579 | 613 ft | 0 kts | 104° |
| 2026-05-06 18:07 | 48.11998 | 16.57580 | 613 ft | 1 kts | 104° |
| 2026-05-06 18:07 | 48.11984 | 16.57662 | 613 ft | 11 kts | 104° |
| 2026-05-06 18:07 | 48.11959 | 16.57779 | 623 ft | 13 kts | 116° |
| 2026-05-06 18:07 | 48.11888 | 16.57856 | 621 ft | 9 kts | 162° |
| 2026-05-06 18:08 | 48.11886 | 16.57857 | 619 ft | 0 kts | 162° |
| 2026-05-06 18:08 | 48.11872 | 16.57864 | 613 ft | 11 kts | 162° |
| 2026-05-06 18:09 | 48.11550 | 16.58006 | 610 ft | 83 kts | 165° |
| 2026-05-06 18:09 | 48.10803 | 16.58325 | 613 ft | 138 kts | 162° |
| 2026-05-06 18:09 | 48.09804 | 16.58840 | 944 ft | 156 kts | 162° |
| 2026-05-06 18:09 | 48.08732 | 16.59286 | 1549 ft | 164 kts | 166° |
| 2026-05-06 18:10 | 48.07602 | 16.59656 | 2210 ft | 167 kts | 172° |
| 2026-05-06 18:10 | 48.06439 | 16.59826 | 2864 ft | 169 kts | 184° |
| 2026-05-06 18:10 | 48.05283 | 16.59300 | 3219 ft | 188 kts | 215° |
| 2026-05-06 18:10 | 48.04367 | 16.57741 | 3552 ft | 213 kts | 230° |
| 2026-05-06 18:11 | 48.03426 | 16.55871 | 3994 ft | 235 kts | 231° |
| 2026-05-06 18:11 | 48.02439 | 16.53873 | 4784 ft | 242 kts | 232° |
| 2026-05-06 18:11 | 48.01435 | 16.51828 | 5648 ft | 247 kts | 232° |
| 2026-05-06 18:11 | 48.00409 | 16.49740 | 6490 ft | 252 kts | 232° |
| 2026-05-06 18:12 | 47.99361 | 16.47611 | 7322 ft | 256 kts | 233° |
| 2026-05-06 18:12 | 47.98405 | 16.45382 | 8284 ft | 255 kts | 244° |
| 2026-05-06 18:12 | 47.97928 | 16.42817 | 9169 ft | 261 kts | 262° |
| 2026-05-06 18:12 | 47.97966 | 16.40080 | 9974 ft | 266 kts | 270° |
| 2026-05-06 18:13 | 47.98087 | 16.37299 | 10728 ft | 270 kts | 270° |
| 2026-05-06 18:13 | 47.98203 | 16.34517 | 11455 ft | 274 kts | 270° |
| 2026-05-06 18:13 | 47.98321 | 16.31651 | 12208 ft | 278 kts | 270° |
| 2026-05-06 18:13 | 47.98437 | 16.28758 | 12930 ft | 282 kts | 270° |
| 2026-05-06 18:14 | 47.98552 | 16.25803 | 13640 ft | 288 kts | 269° |
| 2026-05-06 18:14 | 47.98667 | 16.22720 | 13887 ft | 309 kts | 269° |
| 2026-05-06 18:14 | 47.98784 | 16.19438 | 14233 ft | 323 kts | 270° |
| 2026-05-06 18:14 | 47.98909 | 16.16064 | 14860 ft | 327 kts | 270° |
| 2026-05-06 18:15 | 47.99039 | 16.12660 | 15566 ft | 330 kts | 270° |
| 2026-05-06 18:15 | 47.99230 | 16.09234 | 16274 ft | 332 kts | 272° |
| 2026-05-06 18:15 | 47.99487 | 16.05796 | 16977 ft | 334 kts | 273° |
| 2026-05-06 18:15 | 47.99774 | 16.02355 | 17682 ft | 336 kts | 273° |
| 2026-05-06 18:16 | 48.00072 | 15.98874 | 18339 ft | 338 kts | 273° |
| 2026-05-06 18:16 | 48.00365 | 15.95381 | 18938 ft | 340 kts | 272° |
| 2026-05-06 18:16 | 48.00650 | 15.91860 | 19518 ft | 343 kts | 272° |
| 2026-05-06 18:16 | 48.00927 | 15.88306 | 20083 ft | 345 kts | 272° |
| 2026-05-06 18:17 | 48.01196 | 15.84733 | 20662 ft | 348 kts | 272° |
| 2026-05-06 18:17 | 48.01464 | 15.81125 | 21245 ft | 351 kts | 271° |
| 2026-05-06 18:17 | 48.01734 | 15.77489 | 21835 ft | 353 kts | 271° |
| 2026-05-06 18:17 | 48.02003 | 15.73839 | 22413 ft | 356 kts | 271° |
| 2026-05-06 18:18 | 48.02276 | 15.70138 | 22978 ft | 359 kts | 271° |
| 2026-05-06 18:18 | 48.02550 | 15.66418 | 23491 ft | 361 kts | 271° |
| 2026-05-06 18:18 | 48.02824 | 15.62660 | 23969 ft | 364 kts | 271° |
| 2026-05-06 18:18 | 48.03099 | 15.58897 | 24489 ft | 366 kts | 271° |
| 2026-05-06 18:19 | 48.03375 | 15.55107 | 25004 ft | 368 kts | 271° |
| 2026-05-06 18:19 | 48.03651 | 15.51302 | 25487 ft | 369 kts | 271° |
| 2026-05-06 18:19 | 48.03928 | 15.47475 | 25960 ft | 371 kts | 271° |
| 2026-05-06 18:19 | 48.04205 | 15.43631 | 26443 ft | 373 kts | 271° |
| 2026-05-06 18:20 | 48.04482 | 15.39765 | 26905 ft | 375 kts | 271° |
| 2026-05-06 18:20 | 48.04661 | 15.37150 | 27205 ft | 375 kts | 270° |
| 2026-05-06 18:20 | 48.04827 | 15.33299 | 27628 ft | 376 kts | 268° |
| 2026-05-06 18:20 | 48.04904 | 15.29383 | 28041 ft | 377 kts | 266° |
| 2026-05-06 18:21 | 48.04934 | 15.25453 | 28467 ft | 379 kts | 266° |
| 2026-05-06 18:21 | 48.04952 | 15.21513 | 28858 ft | 381 kts | 266° |
| 2026-05-06 18:21 | 48.04976 | 15.17543 | 29236 ft | 383 kts | 266° |
| 2026-05-06 18:21 | 48.05011 | 15.13555 | 29608 ft | 385 kts | 266° |
| 2026-05-06 18:22 | 48.05058 | 15.09558 | 29724 ft | 385 kts | 266° |
| 2026-05-06 18:22 | 48.05114 | 15.05549 | 29729 ft | 385 kts | 266° |
| 2026-05-06 18:22 | 48.05235 | 14.97555 | 29732 ft | 384 kts | 266° |
| 2026-05-06 18:23 | 48.05345 | 14.89571 | 29727 ft | 384 kts | 266° |
| 2026-05-06 18:23 | 48.05446 | 14.81592 | 29724 ft | 384 kts | 266° |
| 2026-05-06 18:24 | 48.05522 | 14.73618 | 29724 ft | 383 kts | 265° |
| 2026-05-06 18:24 | 48.05574 | 14.65661 | 29716 ft | 382 kts | 265° |
| 2026-05-06 18:25 | 48.05627 | 14.57722 | 29721 ft | 382 kts | 265° |
| 2026-05-06 18:25 | 48.05680 | 14.49803 | 29731 ft | 381 kts | 265° |
| 2026-05-06 18:26 | 48.05721 | 14.41901 | 29733 ft | 380 kts | 265° |
| 2026-05-06 18:26 | 48.05757 | 14.34008 | 29736 ft | 379 kts | 264° |
| 2026-05-06 18:27 | 48.04880 | 14.26423 | 29736 ft | 367 kts | 245° |
| 2026-05-06 18:27 | 48.02694 | 14.19629 | 29728 ft | 365 kts | 241° |
| 2026-05-06 18:28 | 48.00441 | 14.12816 | 29725 ft | 364 kts | 241° |
| 2026-05-06 18:28 | 47.98202 | 14.06056 | 29721 ft | 364 kts | 241° |
| 2026-05-06 18:29 | 47.95949 | 13.99293 | 29722 ft | 364 kts | 241° |
| 2026-05-06 18:29 | 47.93697 | 13.92542 | 29725 ft | 363 kts | 241° |
| 2026-05-06 18:30 | 47.91436 | 13.85804 | 29729 ft | 363 kts | 241° |
| 2026-05-06 18:30 | 47.89163 | 13.79024 | 29739 ft | 363 kts | 241° |
| 2026-05-06 18:31 | 47.86910 | 13.72305 | 29744 ft | 362 kts | 241° |
| 2026-05-06 18:31 | 47.84664 | 13.65634 | 29752 ft | 362 kts | 241° |
| 2026-05-06 18:32 | 47.82396 | 13.58948 | 29605 ft | 364 kts | 241° |
| 2026-05-06 18:32 | 47.81261 | 13.55600 | 29305 ft | 361 kts | 241° |
| 2026-05-06 18:32 | 47.80132 | 13.52262 | 29031 ft | 360 kts | 241° |
| 2026-05-06 18:33 | 47.79007 | 13.48942 | 28759 ft | 359 kts | 241° |
| 2026-05-06 18:33 | 47.77881 | 13.45624 | 28491 ft | 359 kts | 241° |
| 2026-05-06 18:33 | 47.76758 | 13.42325 | 28230 ft | 357 kts | 241° |
| 2026-05-06 18:33 | 47.75634 | 13.39035 | 27966 ft | 356 kts | 241° |
| 2026-05-06 18:34 | 47.74517 | 13.35767 | 27699 ft | 353 kts | 241° |
| 2026-05-06 18:34 | 47.73404 | 13.32510 | 27441 ft | 353 kts | 241° |
| 2026-05-06 18:34 | 47.72303 | 13.29289 | 27174 ft | 344 kts | 240° |
| 2026-05-06 18:34 | 47.71231 | 13.26156 | 26923 ft | 336 kts | 241° |
| 2026-05-06 18:35 | 47.70185 | 13.23102 | 26666 ft | 328 kts | 240° |
| 2026-05-06 18:35 | 47.69159 | 13.20108 | 26412 ft | 325 kts | 240° |
| 2026-05-06 18:35 | 47.68139 | 13.17142 | 26162 ft | 323 kts | 240° |
| 2026-05-06 18:35 | 47.67112 | 13.14170 | 25925 ft | 322 kts | 240° |
| 2026-05-06 18:36 | 47.66095 | 13.11224 | 25666 ft | 321 kts | 240° |
| 2026-05-06 18:36 | 47.65079 | 13.08279 | 25417 ft | 320 kts | 240° |
| 2026-05-06 18:36 | 47.64065 | 13.05343 | 25174 ft | 320 kts | 240° |
| 2026-05-06 18:36 | 47.63050 | 13.02416 | 24933 ft | 319 kts | 240° |
| 2026-05-06 18:37 | 47.62032 | 12.99485 | 24683 ft | 319 kts | 240° |
| 2026-05-06 18:37 | 47.61034 | 12.96601 | 24342 ft | 318 kts | 240° |
| 2026-05-06 18:37 | 47.60026 | 12.93683 | 23953 ft | 317 kts | 240° |
| 2026-05-06 18:37 | 47.59023 | 12.90786 | 23555 ft | 316 kts | 240° |
| 2026-05-06 18:38 | 47.58019 | 12.87894 | 23230 ft | 314 kts | 240° |
| 2026-05-06 18:38 | 47.57017 | 12.85012 | 22890 ft | 314 kts | 240° |
| 2026-05-06 18:38 | 47.56015 | 12.82142 | 22493 ft | 313 kts | 240° |
| 2026-05-06 18:38 | 47.55017 | 12.79292 | 22102 ft | 312 kts | 239° |
| 2026-05-06 18:39 | 47.54021 | 12.76447 | 21697 ft | 311 kts | 240° |
| 2026-05-06 18:39 | 47.53028 | 12.73609 | 21308 ft | 310 kts | 240° |
| 2026-05-06 18:39 | 47.52041 | 12.70789 | 20916 ft | 308 kts | 240° |
| 2026-05-06 18:40 | 47.50494 | 12.64801 | 19920 ft | 310 kts | 249° |
| 2026-05-06 18:40 | 47.49874 | 12.61834 | 19334 ft | 304 kts | 250° |
| 2026-05-06 18:40 | 47.49249 | 12.58824 | 18688 ft | 301 kts | 250° |
| 2026-05-06 18:40 | 47.48636 | 12.55879 | 18004 ft | 299 kts | 250° |
| 2026-05-06 18:41 | 47.48024 | 12.52956 | 17289 ft | 296 kts | 250° |
| 2026-05-06 18:41 | 47.47423 | 12.50101 | 16574 ft | 294 kts | 250° |
| 2026-05-06 18:41 | 47.46815 | 12.47235 | 15911 ft | 289 kts | 250° |
| 2026-05-06 18:41 | 47.46207 | 12.44378 | 15178 ft | 287 kts | 250° |
| 2026-05-06 18:42 | 47.45617 | 12.41616 | 14600 ft | 284 kts | 250° |
| 2026-05-06 18:42 | 47.45024 | 12.38844 | 14046 ft | 281 kts | 250° |
| 2026-05-06 18:42 | 47.44442 | 12.36106 | 13428 ft | 278 kts | 250° |
| 2026-05-06 18:42 | 47.43862 | 12.33386 | 13073 ft | 278 kts | 250° |
| 2026-05-06 18:43 | 47.43276 | 12.30651 | 13011 ft | 279 kts | 250° |
| 2026-05-06 18:43 | 47.42690 | 12.27923 | 13025 ft | 279 kts | 250° |
| 2026-05-06 18:43 | 47.42105 | 12.25193 | 13012 ft | 278 kts | 249° |
| 2026-05-06 18:43 | 47.41519 | 12.22460 | 13018 ft | 279 kts | 250° |
| 2026-05-06 18:44 | 47.40944 | 12.19786 | 12926 ft | 265 kts | 250° |
| 2026-05-06 18:44 | 47.40408 | 12.17288 | 12732 ft | 248 kts | 249° |
| 2026-05-06 18:44 | 47.39895 | 12.14899 | 12303 ft | 242 kts | 249° |
| 2026-05-06 18:44 | 47.39386 | 12.12540 | 11812 ft | 240 kts | 249° |
| 2026-05-06 18:45 | 47.38876 | 12.10185 | 11424 ft | 241 kts | 249° |
| 2026-05-06 18:45 | 47.38368 | 12.07843 | 11129 ft | 240 kts | 249° |
| 2026-05-06 18:45 | 47.37858 | 12.05495 | 10862 ft | 239 kts | 249° |
| 2026-05-06 18:45 | 47.37355 | 12.03178 | 10469 ft | 237 kts | 249° |
| 2026-05-06 18:46 | 47.36850 | 12.00855 | 10028 ft | 237 kts | 249° |
| 2026-05-06 18:46 | 47.36343 | 11.98523 | 9670 ft | 240 kts | 249° |
| 2026-05-06 18:46 | 47.35839 | 11.96191 | 9525 ft | 239 kts | 249° |
| 2026-05-06 18:46 | 47.35331 | 11.93860 | 9513 ft | 239 kts | 249° |
| 2026-05-06 18:47 | 47.34822 | 11.91535 | 9524 ft | 240 kts | 249° |
| 2026-05-06 18:47 | 47.34308 | 11.89190 | 9520 ft | 240 kts | 249° |
| 2026-05-06 18:47 | 47.33808 | 11.86897 | 9517 ft | 228 kts | 249° |
| 2026-05-06 18:47 | 47.33342 | 11.84742 | 9514 ft | 213 kts | 249° |
| 2026-05-06 18:48 | 47.32937 | 11.82976 | 9525 ft | 205 kts | 243° |
| 2026-05-06 18:48 | 47.32411 | 11.81080 | 9479 ft | 198 kts | 249° |
| 2026-05-06 18:48 | 47.32063 | 11.79145 | 9183 ft | 197 kts | 254° |
| 2026-05-06 18:48 | 47.31774 | 11.77142 | 8850 ft | 197 kts | 255° |
| 2026-05-06 18:49 | 47.31502 | 11.75156 | 8527 ft | 198 kts | 256° |
| 2026-05-06 18:49 | 47.31230 | 11.73160 | 8188 ft | 200 kts | 256° |
| 2026-05-06 18:49 | 47.30959 | 11.71158 | 7847 ft | 199 kts | 255° |
| 2026-05-06 18:49 | 47.30688 | 11.69165 | 7512 ft | 196 kts | 255° |
| 2026-05-06 18:50 | 47.30421 | 11.67204 | 7196 ft | 195 kts | 256° |
| 2026-05-06 18:50 | 47.30155 | 11.65251 | 6873 ft | 194 kts | 256° |
| 2026-05-06 18:50 | 47.29888 | 11.63298 | 6565 ft | 194 kts | 255° |
| 2026-05-06 18:50 | 47.29621 | 11.61341 | 6250 ft | 195 kts | 256° |
| 2026-05-06 18:51 | 47.29353 | 11.59384 | 5923 ft | 194 kts | 256° |
| 2026-05-06 18:51 | 47.29086 | 11.57433 | 5581 ft | 194 kts | 256° |
| 2026-05-06 18:51 | 47.28819 | 11.55486 | 5247 ft | 193 kts | 257° |
| 2026-05-06 18:51 | 47.28565 | 11.53636 | 4924 ft | 181 kts | 256° |
| 2026-05-06 18:52 | 47.28324 | 11.51879 | 4653 ft | 168 kts | 255° |
| 2026-05-06 18:52 | 47.28100 | 11.50253 | 4375 ft | 157 kts | 257° |
| 2026-05-06 18:52 | 47.27888 | 11.48712 | 4124 ft | 151 kts | 257° |
| 2026-05-06 18:52 | 47.27681 | 11.47217 | 3884 ft | 147 kts | 258° |
| 2026-05-06 18:53 | 47.27498 | 11.45888 | 3660 ft | 146 kts | 258° |
| 2026-05-06 18:53 | 47.27299 | 11.44434 | 3419 ft | 143 kts | 259° |
| 2026-05-06 18:53 | 47.27114 | 11.43019 | 3158 ft | 138 kts | 258° |
| 2026-05-06 18:53 | 47.26920 | 11.41652 | 2872 ft | 136 kts | 259° |
| 2026-05-06 18:54 | 47.26731 | 11.40267 | 2642 ft | 135 kts | 258° |
| 2026-05-06 18:54 | 47.26547 | 11.38876 | 2454 ft | 140 kts | 254° |
| 2026-05-06 18:54 | 47.26363 | 11.37520 | 2240 ft | 133 kts | 255° |
| 2026-05-06 18:54 | 47.26214 | 11.36120 | 1969 ft | 142 kts | 256° |
| 2026-05-06 18:55 | 47.26049 | 11.34796 | 1909 ft | 106 kts | 259° |
| 2026-05-06 18:55 | 47.25984 | 11.34159 | 1910 ft | 30 kts | 262° |
| 2026-05-06 18:55 | 47.25956 | 11.33854 | 1913 ft | 21 kts | 261° |
| 2026-05-06 18:55 | 47.25952 | 11.33811 | 1909 ft | 0 kts | 261° |
| 2026-05-06 18:57 | 47.25947 | 11.33762 | 1908 ft | 15 kts | 261° |
| 2026-05-06 18:57 | 47.25890 | 11.33727 | 1903 ft | 10 kts | 141° |
| 2026-05-06 18:57 | 47.25804 | 11.33894 | 1914 ft | 25 kts | 123° |
| 2026-05-06 18:57 | 47.25779 | 11.34136 | 1902 ft | 24 kts | 83° |
| 2026-05-06 18:58 | 47.25805 | 11.34380 | 1911 ft | 24 kts | 82° |
| 2026-05-06 18:58 | 47.25829 | 11.34600 | 1914 ft | 16 kts | 75° |
| 2026-05-06 18:58 | 47.25849 | 11.34765 | 1902 ft | 17 kts | 82° |
| 2026-05-06 18:58 | 47.25849 | 11.34850 | 1907 ft | 5 kts | 129° |
| 2026-05-06 18:59 | 47.25811 | 11.34869 | 1907 ft | 6 kts | 169° |
| 2026-05-06 18:59 | 47.25802 | 11.34871 | 1905 ft | 0 kts | 170° |